sensor_id;sensor_type;location;lat;lon;timestamp;P1;durP1;ratioP1;P2;durP2;ratioP2
64957;SDS011;51486;50.232;19.208;2022-10-04T00:01:27;11.93;;;5.30;;
64957;SDS011;51486;50.232;19.208;2022-10-04T00:04:02;18.90;;;6.60;;
64957;SDS011;51486;50.232;19.208;2022-10-04T00:06:29;16.17;;;6.50;;
64957;SDS011;51486;50.232;19.208;2022-10-04T00:08:59;14.67;;;6.53;;
64957;SDS011;51486;50.232;19.208;2022-10-04T00:11:29;17.17;;;6.30;;
64957;SDS011;51486;50.232;19.208;2022-10-04T00:13:59;12.13;;;6.63;;
64957;SDS011;51486;50.232;19.208;2022-10-04T00:16:29;9.20;;;5.50;;
64957;SDS011;51486;50.232;19.208;2022-10-04T00:24:35;17.10;;;8.60;;
64957;SDS011;51486;50.232;19.208;2022-10-04T00:29:33;17.27;;;9.47;;
64957;SDS011;51486;50.232;19.208;2022-10-04T00:37:02;14.90;;;7.77;;
64957;SDS011;51486;50.232;19.208;2022-10-04T00:39:38;17.57;;;7.93;;
64957;SDS011;51486;50.232;19.208;2022-10-04T00:42:18;15.93;;;7.70;;
64957;SDS011;51486;50.232;19.208;2022-10-04T00:45:01;13.13;;;6.77;;
64957;SDS011;51486;50.232;19.208;2022-10-04T00:47:32;13.20;;;5.97;;
64957;SDS011;51486;50.232;19.208;2022-10-04T00:50:04;15.87;;;6.87;;
64957;SDS011;51486;50.232;19.208;2022-10-04T00:52:33;15.63;;;5.60;;
64957;SDS011;51486;50.232;19.208;2022-10-04T00:55:01;14.53;;;5.87;;
64957;SDS011;51486;50.232;19.208;2022-10-04T00:57:37;11.73;;;6.40;;
64957;SDS011;51486;50.232;19.208;2022-10-04T01:00:05;16.47;;;6.80;;
64957;SDS011;51486;50.232;19.208;2022-10-04T01:02:32;14.53;;;6.03;;
64957;SDS011;51486;50.232;19.208;2022-10-04T01:07:38;13.00;;;6.37;;
64957;SDS011;51486;50.232;19.208;2022-10-04T01:10:11;9.57;;;6.47;;
64957;SDS011;51486;50.232;19.208;2022-10-04T01:12:40;20.40;;;8.23;;
64957;SDS011;51486;50.232;19.208;2022-10-04T01:15:10;19.83;;;7.97;;
64957;SDS011;51486;50.232;19.208;2022-10-04T01:17:38;17.80;;;8.47;;
64957;SDS011;51486;50.232;19.208;2022-10-04T01:20:12;15.93;;;8.13;;
64957;SDS011;51486;50.232;19.208;2022-10-04T01:22:49;12.53;;;6.93;;
64957;SDS011;51486;50.232;19.208;2022-10-04T01:25:41;14.93;;;8.27;;
64957;SDS011;51486;50.232;19.208;2022-10-04T01:28:00;14.77;;;7.57;;
64957;SDS011;51486;50.232;19.208;2022-10-04T01:33:00;17.07;;;8.13;;
64957;SDS011;51486;50.232;19.208;2022-10-04T01:35:27;12.57;;;6.50;;
64957;SDS011;51486;50.232;19.208;2022-10-04T01:37:53;20.37;;;7.47;;
64957;SDS011;51486;50.232;19.208;2022-10-04T01:40:19;12.40;;;6.70;;
64957;SDS011;51486;50.232;19.208;2022-10-04T01:42:49;13.60;;;5.70;;
64957;SDS011;51486;50.232;19.208;2022-10-04T01:45:18;11.43;;;5.97;;
64957;SDS011;51486;50.232;19.208;2022-10-04T01:47:54;12.13;;;5.63;;
64957;SDS011;51486;50.232;19.208;2022-10-04T01:52:54;16.67;;;5.47;;
64957;SDS011;51486;50.232;19.208;2022-10-04T01:55:25;16.87;;;4.40;;
64957;SDS011;51486;50.232;19.208;2022-10-04T01:57:53;7.57;;;4.50;;
64957;SDS011;51486;50.232;19.208;2022-10-04T02:00:22;7.30;;;3.97;;
64957;SDS011;51486;50.232;19.208;2022-10-04T02:02:59;8.27;;;4.03;;
64957;SDS011;51486;50.232;19.208;2022-10-04T02:05:29;9.47;;;4.20;;
64957;SDS011;51486;50.232;19.208;2022-10-04T02:07:55;12.57;;;4.17;;
64957;SDS011;51486;50.232;19.208;2022-10-04T02:10:20;7.73;;;4.37;;
64957;SDS011;51486;50.232;19.208;2022-10-04T02:12:48;14.63;;;4.30;;
64957;SDS011;51486;50.232;19.208;2022-10-04T02:15:15;12.90;;;4.50;;
64957;SDS011;51486;50.232;19.208;2022-10-04T02:17:43;12.77;;;3.97;;
64957;SDS011;51486;50.232;19.208;2022-10-04T02:20:19;8.80;;;4.33;;
64957;SDS011;51486;50.232;19.208;2022-10-04T02:22:48;8.73;;;4.70;;
64957;SDS011;51486;50.232;19.208;2022-10-04T02:25:14;12.97;;;4.73;;
64957;SDS011;51486;50.232;19.208;2022-10-04T02:27:44;7.93;;;4.43;;
64957;SDS011;51486;50.232;19.208;2022-10-04T02:30:10;7.27;;;4.40;;
64957;SDS011;51486;50.232;19.208;2022-10-04T02:32:37;18.60;;;5.37;;
64957;SDS011;51486;50.232;19.208;2022-10-04T02:35:21;8.00;;;4.73;;
64957;SDS011;51486;50.232;19.208;2022-10-04T02:37:48;8.67;;;4.90;;
64957;SDS011;51486;50.232;19.208;2022-10-04T02:40:17;12.20;;;5.27;;
64957;SDS011;51486;50.232;19.208;2022-10-04T02:42:49;7.57;;;5.00;;
64957;SDS011;51486;50.232;19.208;2022-10-04T02:45:19;17.10;;;4.87;;
64957;SDS011;51486;50.232;19.208;2022-10-04T02:47:47;9.40;;;5.00;;
64957;SDS011;51486;50.232;19.208;2022-10-04T02:50:20;11.10;;;5.00;;
64957;SDS011;51486;50.232;19.208;2022-10-04T02:52:50;11.23;;;5.63;;
64957;SDS011;51486;50.232;19.208;2022-10-04T02:55:30;10.13;;;4.53;;
64957;SDS011;51486;50.232;19.208;2022-10-04T02:57:56;12.53;;;5.37;;
64957;SDS011;51486;50.232;19.208;2022-10-04T03:00:29;15.67;;;4.57;;
64957;SDS011;51486;50.232;19.208;2022-10-04T03:05:46;12.17;;;4.70;;
64957;SDS011;51486;50.232;19.208;2022-10-04T03:08:17;10.60;;;5.03;;
64957;SDS011;51486;50.232;19.208;2022-10-04T03:10:42;9.10;;;5.03;;
64957;SDS011;51486;50.232;19.208;2022-10-04T03:13:08;8.63;;;4.80;;
64957;SDS011;51486;50.232;19.208;2022-10-04T03:15:34;10.73;;;4.60;;
64957;SDS011;51486;50.232;19.208;2022-10-04T03:17:59;13.27;;;4.57;;
64957;SDS011;51486;50.232;19.208;2022-10-04T03:20:25;9.43;;;3.73;;
64957;SDS011;51486;50.232;19.208;2022-10-04T03:22:52;11.00;;;4.17;;
64957;SDS011;51486;50.232;19.208;2022-10-04T03:25:29;8.33;;;4.20;;
64957;SDS011;51486;50.232;19.208;2022-10-04T03:28:01;10.57;;;4.30;;
64957;SDS011;51486;50.232;19.208;2022-10-04T03:30:27;5.07;;;3.57;;
64957;SDS011;51486;50.232;19.208;2022-10-04T03:32:52;12.50;;;4.30;;
64957;SDS011;51486;50.232;19.208;2022-10-04T03:35:28;6.70;;;4.00;;
64957;SDS011;51486;50.232;19.208;2022-10-04T03:37:55;5.13;;;3.30;;
64957;SDS011;51486;50.232;19.208;2022-10-04T03:40:23;13.60;;;4.63;;
64957;SDS011;51486;50.232;19.208;2022-10-04T03:42:51;11.97;;;4.27;;
64957;SDS011;51486;50.232;19.208;2022-10-04T03:45:17;9.70;;;4.47;;
64957;SDS011;51486;50.232;19.208;2022-10-04T03:47:43;15.30;;;5.30;;
64957;SDS011;51486;50.232;19.208;2022-10-04T03:50:12;8.73;;;4.93;;
64957;SDS011;51486;50.232;19.208;2022-10-04T03:52:40;6.60;;;4.30;;
64957;SDS011;51486;50.232;19.208;2022-10-04T03:55:09;8.90;;;5.07;;
64957;SDS011;51486;50.232;19.208;2022-10-04T03:57:35;7.27;;;5.03;;
64957;SDS011;51486;50.232;19.208;2022-10-04T04:00:03;12.53;;;4.57;;
64957;SDS011;51486;50.232;19.208;2022-10-04T04:02:31;6.47;;;3.80;;
64957;SDS011;51486;50.232;19.208;2022-10-04T04:07:42;8.00;;;4.67;;
64957;SDS011;51486;50.232;19.208;2022-10-04T04:10:20;7.93;;;4.93;;
64957;SDS011;51486;50.232;19.208;2022-10-04T04:12:58;7.13;;;3.20;;
64957;SDS011;51486;50.232;19.208;2022-10-04T04:15:27;13.13;;;4.83;;
64957;SDS011;51486;50.232;19.208;2022-10-04T04:17:55;9.40;;;3.93;;
64957;SDS011;51486;50.232;19.208;2022-10-04T04:20:24;5.13;;;3.80;;
64957;SDS011;51486;50.232;19.208;2022-10-04T04:22:55;8.97;;;4.07;;
64957;SDS011;51486;50.232;19.208;2022-10-04T04:25:22;7.50;;;3.97;;
64957;SDS011;51486;50.232;19.208;2022-10-04T04:27:48;6.23;;;2.93;;
64957;SDS011;51486;50.232;19.208;2022-10-04T04:30:15;9.10;;;3.43;;
64957;SDS011;51486;50.232;19.208;2022-10-04T04:32:43;4.90;;;3.30;;
64957;SDS011;51486;50.232;19.208;2022-10-04T04:35:23;4.53;;;2.90;;
64957;SDS011;51486;50.232;19.208;2022-10-04T04:38:03;3.77;;;2.50;;
64957;SDS011;51486;50.232;19.208;2022-10-04T04:40:29;5.87;;;2.53;;
64957;SDS011;51486;50.232;19.208;2022-10-04T04:42:56;12.90;;;3.07;;
64957;SDS011;51486;50.232;19.208;2022-10-04T04:45:22;5.53;;;2.17;;
64957;SDS011;51486;50.232;19.208;2022-10-04T04:47:54;8.70;;;2.50;;
64957;SDS011;51486;50.232;19.208;2022-10-04T04:50:30;4.40;;;2.63;;
64957;SDS011;51486;50.232;19.208;2022-10-04T04:53:13;8.63;;;2.87;;
64957;SDS011;51486;50.232;19.208;2022-10-04T04:55:44;3.43;;;1.90;;
64957;SDS011;51486;50.232;19.208;2022-10-04T04:58:16;5.23;;;2.60;;
64957;SDS011;51486;50.232;19.208;2022-10-04T05:00:46;5.17;;;1.93;;
64957;SDS011;51486;50.232;19.208;2022-10-04T05:03:17;5.03;;;2.40;;
64957;SDS011;51486;50.232;19.208;2022-10-04T05:05:44;9.80;;;2.43;;
64957;SDS011;51486;50.232;19.208;2022-10-04T05:08:26;6.40;;;3.20;;
64957;SDS011;51486;50.232;19.208;2022-10-04T05:13:47;8.20;;;2.93;;
64957;SDS011;51486;50.232;19.208;2022-10-04T05:16:25;4.07;;;2.87;;
64957;SDS011;51486;50.232;19.208;2022-10-04T05:18:55;7.67;;;3.33;;
64957;SDS011;51486;50.232;19.208;2022-10-04T05:21:24;9.27;;;2.67;;
64957;SDS011;51486;50.232;19.208;2022-10-04T05:23:50;13.47;;;3.27;;
64957;SDS011;51486;50.232;19.208;2022-10-04T05:26:18;6.13;;;3.30;;
64957;SDS011;51486;50.232;19.208;2022-10-04T05:28:48;9.07;;;4.27;;
64957;SDS011;51486;50.232;19.208;2022-10-04T05:33:48;16.57;;;5.60;;
64957;SDS011;51486;50.232;19.208;2022-10-04T05:39:16;6.37;;;4.33;;
64957;SDS011;51486;50.232;19.208;2022-10-04T05:41:43;7.00;;;3.70;;
64957;SDS011;51486;50.232;19.208;2022-10-04T05:47:05;8.17;;;2.10;;
64957;SDS011;51486;50.232;19.208;2022-10-04T05:49:33;16.93;;;3.20;;
64957;SDS011;51486;50.232;19.208;2022-10-04T05:52:02;5.47;;;2.53;;
64957;SDS011;51486;50.232;19.208;2022-10-04T05:54:29;2.73;;;1.90;;
64957;SDS011;51486;50.232;19.208;2022-10-04T05:57:01;4.03;;;1.73;;
64957;SDS011;51486;50.232;19.208;2022-10-04T06:02:04;4.23;;;2.30;;
64957;SDS011;51486;50.232;19.208;2022-10-04T06:07:17;4.13;;;2.37;;
64957;SDS011;51486;50.232;19.208;2022-10-04T06:09:50;2.40;;;1.53;;
64957;SDS011;51486;50.232;19.208;2022-10-04T06:17:32;7.90;;;2.67;;
64957;SDS011;51486;50.232;19.208;2022-10-04T06:22:30;2.53;;;1.93;;
64957;SDS011;51486;50.232;19.208;2022-10-04T06:25:06;3.63;;;2.27;;
64957;SDS011;51486;50.232;19.208;2022-10-04T06:27:40;10.60;;;2.10;;
64957;SDS011;51486;50.232;19.208;2022-10-04T06:30:12;2.73;;;1.83;;
64957;SDS011;51486;50.232;19.208;2022-10-04T06:41:10;8.70;;;1.53;;
64957;SDS011;51486;50.232;19.208;2022-10-04T06:43:25;3.30;;;2.50;;
64957;SDS011;51486;50.232;19.208;2022-10-04T06:48:53;3.83;;;2.17;;
64957;SDS011;51486;50.232;19.208;2022-10-04T06:51:28;2.97;;;1.97;;
64957;SDS011;51486;50.232;19.208;2022-10-04T07:01:48;4.07;;;1.80;;
64957;SDS011;51486;50.232;19.208;2022-10-04T07:04:34;2.37;;;1.73;;
64957;SDS011;51486;50.232;19.208;2022-10-04T07:07:06;3.87;;;2.27;;
64957;SDS011;51486;50.232;19.208;2022-10-04T07:10:02;3.73;;;1.63;;
64957;SDS011;51486;50.232;19.208;2022-10-04T07:12:30;8.07;;;2.13;;
64957;SDS011;51486;50.232;19.208;2022-10-04T07:14:57;3.57;;;1.87;;
64957;SDS011;51486;50.232;19.208;2022-10-04T07:17:29;4.37;;;2.23;;
64957;SDS011;51486;50.232;19.208;2022-10-04T07:19:56;4.90;;;2.10;;
64957;SDS011;51486;50.232;19.208;2022-10-04T07:22:28;8.57;;;2.13;;
64957;SDS011;51486;50.232;19.208;2022-10-04T07:27:31;2.63;;;2.07;;
64957;SDS011;51486;50.232;19.208;2022-10-04T07:29:58;10.97;;;3.60;;
64957;SDS011;51486;50.232;19.208;2022-10-04T07:32:27;4.50;;;2.20;;
64957;SDS011;51486;50.232;19.208;2022-10-04T07:35:01;3.60;;;2.23;;
64957;SDS011;51486;50.232;19.208;2022-10-04T07:37:28;6.50;;;1.83;;
64957;SDS011;51486;50.232;19.208;2022-10-04T07:40:15;3.20;;;1.87;;
64957;SDS011;51486;50.232;19.208;2022-10-04T07:45:37;4.30;;;1.90;;
64957;SDS011;51486;50.232;19.208;2022-10-04T07:50:38;3.40;;;2.10;;
64957;SDS011;51486;50.232;19.208;2022-10-04T07:53:22;6.27;;;1.83;;
64957;SDS011;51486;50.232;19.208;2022-10-04T08:01:16;4.87;;;2.47;;
64957;SDS011;51486;50.232;19.208;2022-10-04T08:11:47;4.77;;;1.83;;
64957;SDS011;51486;50.232;19.208;2022-10-04T08:19:37;4.03;;;1.90;;
64957;SDS011;51486;50.232;19.208;2022-10-04T08:24:52;2.53;;;1.50;;
64957;SDS011;51486;50.232;19.208;2022-10-04T08:27:35;5.63;;;1.97;;
64957;SDS011;51486;50.232;19.208;2022-10-04T08:30:15;10.50;;;1.90;;
64957;SDS011;51486;50.232;19.208;2022-10-04T08:53:33;2.07;;;1.23;;
64957;SDS011;51486;50.232;19.208;2022-10-04T08:58:52;3.00;;;1.70;;
64957;SDS011;51486;50.232;19.208;2022-10-04T09:04:26;2.53;;;1.40;;
64957;SDS011;51486;50.232;19.208;2022-10-04T09:14:49;1.63;;;1.37;;
64957;SDS011;51486;50.232;19.208;2022-10-04T09:17:35;2.60;;;1.33;;
64957;SDS011;51486;50.232;19.208;2022-10-04T09:20:20;1.90;;;1.37;;
64957;SDS011;51486;50.232;19.208;2022-10-04T09:25:16;2.63;;;1.40;;
64957;SDS011;51486;50.232;19.208;2022-10-04T09:30:19;9.83;;;1.53;;
64957;SDS011;51486;50.232;19.208;2022-10-04T09:48:44;8.63;;;1.30;;
64957;SDS011;51486;50.232;19.208;2022-10-04T10:13:05;2.97;;;1.40;;
64957;SDS011;51486;50.232;19.208;2022-10-04T10:18:30;3.77;;;2.07;;
64957;SDS011;51486;50.232;19.208;2022-10-04T10:23:54;1.83;;;1.20;;
64957;SDS011;51486;50.232;19.208;2022-10-04T10:43:57;1.90;;;1.20;;
64957;SDS011;51486;50.232;19.208;2022-10-04T11:20:39;5.23;;;0.87;;
64957;SDS011;51486;50.232;19.208;2022-10-04T11:25:44;6.57;;;1.10;;
64957;SDS011;51486;50.232;19.208;2022-10-04T11:39:33;1.43;;;0.77;;
64957;SDS011;51486;50.232;19.208;2022-10-04T11:44:54;1.83;;;1.17;;
64957;SDS011;51486;50.232;19.208;2022-10-04T11:50:05;3.37;;;1.13;;
64957;SDS011;51486;50.232;19.208;2022-10-04T12:00:40;2.90;;;1.10;;
64957;SDS011;51486;50.232;19.208;2022-10-04T12:08:44;2.17;;;1.03;;
64957;SDS011;51486;50.232;19.208;2022-10-04T12:14:20;0.80;;;0.60;;
64957;SDS011;51486;50.232;19.208;2022-10-04T12:16:45;0.50;;;0.50;;
64957;SDS011;51486;50.232;19.208;2022-10-04T12:22:18;2.30;;;0.90;;
64957;SDS011;51486;50.232;19.208;2022-10-04T12:34:54;1.20;;;1.07;;
64957;SDS011;51486;50.232;19.208;2022-10-04T12:37:29;1.40;;;0.87;;
64957;SDS011;51486;50.232;19.208;2022-10-04T12:42:32;0.50;;;0.40;;
64957;SDS011;51486;50.232;19.208;2022-10-04T12:53:15;3.80;;;1.00;;
64957;SDS011;51486;50.232;19.208;2022-10-04T13:00:44;9.73;;;0.90;;
64957;SDS011;51486;50.232;19.208;2022-10-04T13:24:40;1.73;;;0.97;;
64957;SDS011;51486;50.232;19.208;2022-10-04T13:33:22;2.03;;;1.07;;
64957;SDS011;51486;50.232;19.208;2022-10-04T13:46:05;1.70;;;1.00;;
64957;SDS011;51486;50.232;19.208;2022-10-04T13:48:55;3.40;;;1.00;;
64957;SDS011;51486;50.232;19.208;2022-10-04T13:51:31;0.77;;;0.77;;
64957;SDS011;51486;50.232;19.208;2022-10-04T13:59:42;5.40;;;0.70;;
64957;SDS011;51486;50.232;19.208;2022-10-04T14:17:49;11.53;;;1.33;;
64957;SDS011;51486;50.232;19.208;2022-10-04T14:23:12;2.60;;;1.33;;
64957;SDS011;51486;50.232;19.208;2022-10-04T14:31:02;1.10;;;0.70;;
64957;SDS011;51486;50.232;19.208;2022-10-04T14:44:04;1.73;;;1.10;;
64957;SDS011;51486;50.232;19.208;2022-10-04T15:00:19;1.40;;;0.93;;
64957;SDS011;51486;50.232;19.208;2022-10-04T15:10:51;1.93;;;1.17;;
64957;SDS011;51486;50.232;19.208;2022-10-04T15:18:31;1.50;;;1.00;;
64957;SDS011;51486;50.232;19.208;2022-10-04T15:21:00;1.63;;;0.93;;
64957;SDS011;51486;50.232;19.208;2022-10-04T15:23:39;2.77;;;0.93;;
64957;SDS011;51486;50.232;19.208;2022-10-04T15:33:41;3.73;;;1.77;;
64957;SDS011;51486;50.232;19.208;2022-10-04T15:38:55;2.33;;;1.27;;
64957;SDS011;51486;50.232;19.208;2022-10-04T15:41:39;3.03;;;1.57;;
64957;SDS011;51486;50.232;19.208;2022-10-04T15:44:13;2.20;;;1.43;;
64957;SDS011;51486;50.232;19.208;2022-10-04T15:46:46;4.83;;;1.03;;
64957;SDS011;51486;50.232;19.208;2022-10-04T15:56:59;1.40;;;1.10;;
64957;SDS011;51486;50.232;19.208;2022-10-04T16:02:19;2.50;;;1.60;;
64957;SDS011;51486;50.232;19.208;2022-10-04T16:10:16;3.37;;;1.47;;
64957;SDS011;51486;50.232;19.208;2022-10-04T16:17:51;6.93;;;2.57;;
64957;SDS011;51486;50.232;19.208;2022-10-04T16:20:37;4.77;;;1.80;;
64957;SDS011;51486;50.232;19.208;2022-10-04T16:26:03;7.63;;;2.17;;
64957;SDS011;51486;50.232;19.208;2022-10-04T16:31:17;13.63;;;2.67;;
64957;SDS011;51486;50.232;19.208;2022-10-04T16:33:58;13.60;;;2.77;;
64957;SDS011;51486;50.232;19.208;2022-10-04T16:36:27;7.40;;;3.00;;
64957;SDS011;51486;50.232;19.208;2022-10-04T16:38:56;7.70;;;4.13;;
64957;SDS011;51486;50.232;19.208;2022-10-04T16:41:44;6.83;;;3.47;;
64957;SDS011;51486;50.232;19.208;2022-10-04T16:46:59;7.87;;;3.33;;
64957;SDS011;51486;50.232;19.208;2022-10-04T16:50:10;17.73;;;4.87;;
64957;SDS011;51486;50.232;19.208;2022-10-04T16:52:14;11.37;;;4.83;;
64957;SDS011;51486;50.232;19.208;2022-10-04T16:54:56;9.07;;;4.47;;
64957;SDS011;51486;50.232;19.208;2022-10-04T16:57:25;17.67;;;6.37;;
64957;SDS011;51486;50.232;19.208;2022-10-04T16:59:52;84.83;;;32.70;;
64957;SDS011;51486;50.232;19.208;2022-10-04T17:02:22;137.97;;;50.57;;
64957;SDS011;51486;50.232;19.208;2022-10-04T17:08:19;95.77;;;30.07;;
64957;SDS011;51486;50.232;19.208;2022-10-04T17:15:35;46.43;;;20.60;;
64957;SDS011;51486;50.232;19.208;2022-10-04T17:26:03;52.03;;;24.27;;
64957;SDS011;51486;50.232;19.208;2022-10-04T17:39:01;44.40;;;16.27;;
64957;SDS011;51486;50.232;19.208;2022-10-04T17:41:38;37.30;;;18.00;;
64957;SDS011;51486;50.232;19.208;2022-10-04T17:46:41;91.60;;;34.10;;
64957;SDS011;51486;50.232;19.208;2022-10-04T17:52:02;65.13;;;28.93;;
64957;SDS011;51486;50.232;19.208;2022-10-04T17:54:50;61.43;;;28.47;;
64957;SDS011;51486;50.232;19.208;2022-10-04T18:00:21;100.53;;;43.37;;
64957;SDS011;51486;50.232;19.208;2022-10-04T18:02:54;107.57;;;41.60;;
64957;SDS011;51486;50.232;19.208;2022-10-04T18:05:43;89.17;;;38.30;;
64957;SDS011;51486;50.232;19.208;2022-10-04T18:10:47;81.97;;;33.40;;
64957;SDS011;51486;50.232;19.208;2022-10-04T18:13:34;84.17;;;34.50;;
64957;SDS011;51486;50.232;19.208;2022-10-04T18:16:06;76.47;;;31.83;;
64957;SDS011;51486;50.232;19.208;2022-10-04T18:18:37;64.20;;;27.57;;
64957;SDS011;51486;50.232;19.208;2022-10-04T18:21:04;74.23;;;27.23;;
64957;SDS011;51486;50.232;19.208;2022-10-04T18:23:34;65.00;;;28.90;;
64957;SDS011;51486;50.232;19.208;2022-10-04T18:26:05;65.00;;;27.77;;
64957;SDS011;51486;50.232;19.208;2022-10-04T18:28:33;74.83;;;27.73;;
64957;SDS011;51486;50.232;19.208;2022-10-04T18:31:02;64.20;;;28.27;;
64957;SDS011;51486;50.232;19.208;2022-10-04T18:33:44;78.53;;;30.73;;
64957;SDS011;51486;50.232;19.208;2022-10-04T18:38:42;74.93;;;28.83;;
64957;SDS011;51486;50.232;19.208;2022-10-04T18:44:04;158.60;;;54.37;;
64957;SDS011;51486;50.232;19.208;2022-10-04T18:46:36;90.00;;;37.37;;
64957;SDS011;51486;50.232;19.208;2022-10-04T18:49:16;60.87;;;29.03;;
64957;SDS011;51486;50.232;19.208;2022-10-04T18:54:41;67.30;;;28.30;;
64957;SDS011;51486;50.232;19.208;2022-10-04T19:03:06;88.73;;;34.70;;
64957;SDS011;51486;50.232;19.208;2022-10-04T19:08:03;81.27;;;31.23;;
64957;SDS011;51486;50.232;19.208;2022-10-04T19:10:33;74.00;;;28.83;;
64957;SDS011;51486;50.232;19.208;2022-10-04T19:15:48;100.07;;;36.77;;
64957;SDS011;51486;50.232;19.208;2022-10-04T19:20:47;80.27;;;31.43;;
64957;SDS011;51486;50.232;19.208;2022-10-04T19:23:23;75.17;;;31.30;;
64957;SDS011;51486;50.232;19.208;2022-10-04T19:28:22;80.40;;;36.27;;
64957;SDS011;51486;50.232;19.208;2022-10-04T19:33:28;123.93;;;44.57;;
64957;SDS011;51486;50.232;19.208;2022-10-04T19:35:59;127.57;;;41.37;;
64957;SDS011;51486;50.232;19.208;2022-10-04T19:48:47;62.77;;;28.60;;
64957;SDS011;51486;50.232;19.208;2022-10-04T19:51:37;61.17;;;27.30;;
64957;SDS011;51486;50.232;19.208;2022-10-04T19:54:11;86.97;;;28.33;;
64957;SDS011;51486;50.232;19.208;2022-10-04T19:56:40;55.07;;;21.97;;
64957;SDS011;51486;50.232;19.208;2022-10-04T19:59:11;49.50;;;20.73;;
64957;SDS011;51486;50.232;19.208;2022-10-04T20:01:38;46.10;;;20.23;;
64957;SDS011;51486;50.232;19.208;2022-10-04T20:04:06;42.73;;;18.87;;
64957;SDS011;51486;50.232;19.208;2022-10-04T20:06:54;51.93;;;19.00;;
64957;SDS011;51486;50.232;19.208;2022-10-04T20:11:56;58.97;;;19.63;;
64957;SDS011;51486;50.232;19.208;2022-10-04T20:19:18;47.60;;;19.87;;
64957;SDS011;51486;50.232;19.208;2022-10-04T20:21:44;58.20;;;21.30;;
64957;SDS011;51486;50.232;19.208;2022-10-04T20:24:17;48.13;;;18.63;;
64957;SDS011;51486;50.232;19.208;2022-10-04T20:27:05;49.00;;;22.00;;
64957;SDS011;51486;50.232;19.208;2022-10-04T20:32:08;49.83;;;21.47;;
64957;SDS011;51486;50.232;19.208;2022-10-04T20:37:02;46.97;;;21.83;;
64957;SDS011;51486;50.232;19.208;2022-10-04T20:42:10;53.90;;;22.87;;
64957;SDS011;51486;50.232;19.208;2022-10-04T20:44:59;55.87;;;25.03;;
64957;SDS011;51486;50.232;19.208;2022-10-04T20:47:43;57.40;;;23.13;;
64957;SDS011;51486;50.232;19.208;2022-10-04T20:52:48;55.53;;;22.30;;
64957;SDS011;51486;50.232;19.208;2022-10-04T20:55:19;46.57;;;20.23;;
64957;SDS011;51486;50.232;19.208;2022-10-04T20:57:46;59.63;;;22.47;;
64957;SDS011;51486;50.232;19.208;2022-10-04T21:00:16;55.70;;;24.40;;
64957;SDS011;51486;50.232;19.208;2022-10-04T21:02:42;61.17;;;27.27;;
64957;SDS011;51486;50.232;19.208;2022-10-04T21:05:15;65.73;;;29.13;;
64957;SDS011;51486;50.232;19.208;2022-10-04T21:07:42;69.80;;;25.10;;
64957;SDS011;51486;50.232;19.208;2022-10-04T21:10:16;52.87;;;23.47;;
64957;SDS011;51486;50.232;19.208;2022-10-04T21:12:42;53.90;;;23.60;;
64957;SDS011;51486;50.232;19.208;2022-10-04T21:17:43;48.33;;;21.20;;
64957;SDS011;51486;50.232;19.208;2022-10-04T21:20:12;49.33;;;19.60;;
64957;SDS011;51486;50.232;19.208;2022-10-04T21:22:39;40.47;;;17.63;;
64957;SDS011;51486;50.232;19.208;2022-10-04T21:25:24;48.80;;;19.23;;
64957;SDS011;51486;50.232;19.208;2022-10-04T21:27:51;43.50;;;18.37;;
64957;SDS011;51486;50.232;19.208;2022-10-04T21:30:16;47.67;;;19.70;;
64957;SDS011;51486;50.232;19.208;2022-10-04T21:32:44;36.87;;;16.73;;
64957;SDS011;51486;50.232;19.208;2022-10-04T21:35:11;49.13;;;18.53;;
64957;SDS011;51486;50.232;19.208;2022-10-04T21:37:36;55.80;;;24.00;;
64957;SDS011;51486;50.232;19.208;2022-10-04T21:40:02;42.37;;;21.80;;
64957;SDS011;51486;50.232;19.208;2022-10-04T21:42:28;40.23;;;18.63;;
64957;SDS011;51486;50.232;19.208;2022-10-04T21:44:53;37.03;;;17.20;;
64957;SDS011;51486;50.232;19.208;2022-10-04T21:47:19;36.67;;;16.50;;
64957;SDS011;51486;50.232;19.208;2022-10-04T21:49:46;29.53;;;13.37;;
64957;SDS011;51486;50.232;19.208;2022-10-04T21:52:12;39.87;;;16.77;;
64957;SDS011;51486;50.232;19.208;2022-10-04T21:54:37;31.97;;;15.70;;
64957;SDS011;51486;50.232;19.208;2022-10-04T21:57:03;37.50;;;16.37;;
64957;SDS011;51486;50.232;19.208;2022-10-04T21:59:28;53.77;;;16.27;;
64957;SDS011;51486;50.232;19.208;2022-10-04T22:01:54;38.43;;;17.00;;
64957;SDS011;51486;50.232;19.208;2022-10-04T22:04:19;39.87;;;15.70;;
64957;SDS011;51486;50.232;19.208;2022-10-04T22:06:45;37.93;;;15.70;;
64957;SDS011;51486;50.232;19.208;2022-10-04T22:09:10;40.93;;;17.43;;
64957;SDS011;51486;50.232;19.208;2022-10-04T22:11:36;32.40;;;16.70;;
64957;SDS011;51486;50.232;19.208;2022-10-04T22:14:01;42.77;;;13.93;;
64957;SDS011;51486;50.232;19.208;2022-10-04T22:16:27;30.47;;;13.13;;
64957;SDS011;51486;50.232;19.208;2022-10-04T22:18:53;33.67;;;13.47;;
64957;SDS011;51486;50.232;19.208;2022-10-04T22:21:18;27.07;;;12.83;;
64957;SDS011;51486;50.232;19.208;2022-10-04T22:23:44;34.47;;;13.37;;
64957;SDS011;51486;50.232;19.208;2022-10-04T22:28:34;29.37;;;13.43;;
64957;SDS011;51486;50.232;19.208;2022-10-04T22:31:00;40.87;;;17.20;;
64957;SDS011;51486;50.232;19.208;2022-10-04T22:33:39;35.93;;;15.80;;
64957;SDS011;51486;50.232;19.208;2022-10-04T22:36:15;41.43;;;15.73;;
64957;SDS011;51486;50.232;19.208;2022-10-04T22:38:43;50.20;;;16.67;;
64957;SDS011;51486;50.232;19.208;2022-10-04T22:41:10;39.53;;;16.07;;
64957;SDS011;51486;50.232;19.208;2022-10-04T22:43:36;38.17;;;16.03;;
64957;SDS011;51486;50.232;19.208;2022-10-04T22:46:01;68.27;;;16.57;;
64957;SDS011;51486;50.232;19.208;2022-10-04T22:48:26;52.53;;;16.13;;
64957;SDS011;51486;50.232;19.208;2022-10-04T22:50:53;35.47;;;15.10;;
64957;SDS011;51486;50.232;19.208;2022-10-04T22:53:19;65.70;;;15.13;;
64957;SDS011;51486;50.232;19.208;2022-10-04T22:55:46;41.37;;;14.20;;
64957;SDS011;51486;50.232;19.208;2022-10-04T22:58:12;36.13;;;14.57;;
64957;SDS011;51486;50.232;19.208;2022-10-04T23:00:38;31.87;;;13.57;;
64957;SDS011;51486;50.232;19.208;2022-10-04T23:03:14;31.63;;;13.83;;
64957;SDS011;51486;50.232;19.208;2022-10-04T23:05:42;35.73;;;14.67;;
64957;SDS011;51486;50.232;19.208;2022-10-04T23:08:09;28.00;;;12.77;;
64957;SDS011;51486;50.232;19.208;2022-10-04T23:10:35;24.80;;;12.33;;
64957;SDS011;51486;50.232;19.208;2022-10-04T23:13:00;32.27;;;13.80;;
64957;SDS011;51486;50.232;19.208;2022-10-04T23:15:26;29.37;;;14.20;;
64957;SDS011;51486;50.232;19.208;2022-10-04T23:17:52;35.30;;;12.33;;
64957;SDS011;51486;50.232;19.208;2022-10-04T23:20:18;31.53;;;13.60;;
64957;SDS011;51486;50.232;19.208;2022-10-04T23:22:48;22.57;;;11.00;;
64957;SDS011;51486;50.232;19.208;2022-10-04T23:25:24;33.50;;;12.73;;
64957;SDS011;51486;50.232;19.208;2022-10-04T23:27:50;40.80;;;15.00;;
64957;SDS011;51486;50.232;19.208;2022-10-04T23:30:20;35.07;;;16.93;;
64957;SDS011;51486;50.232;19.208;2022-10-04T23:32:47;43.33;;;15.60;;
64957;SDS011;51486;50.232;19.208;2022-10-04T23:35:21;50.07;;;17.63;;
64957;SDS011;51486;50.232;19.208;2022-10-04T23:37:48;45.23;;;17.80;;
64957;SDS011;51486;50.232;19.208;2022-10-04T23:40:15;30.57;;;14.27;;
64957;SDS011;51486;50.232;19.208;2022-10-04T23:42:41;36.70;;;14.83;;
64957;SDS011;51486;50.232;19.208;2022-10-04T23:45:12;30.03;;;13.57;;